Time;durP1;ratioP1;P1;durP2;ratioP2;P2;SDS_P1;SDS_P2;PMS_P1;PMS_P2;Temp;Humidity;BMP_temperature;BMP_pressure;BME280_temperature;BME280_humidity;BME280_pressure;Samples;Min_cycle;Max_cycle;Signal;HPM_P1;HPM_P2
2022/01/23 00:01:54;;;;;;;16.13;8.57;;;;;;;6.29;68.90;98876.00;4938796;28;20308;-85
2022/01/23 00:04:28;;;;;;;21.00;11.00;;;;;;;6.33;68.98;98870.31;4958938;28;20206;-85
2022/01/23 00:06:55;;;;;;;19.90;11.00;;;;;;;6.28;69.16;98869.25;4942702;28;20270;-85
2022/01/23 00:09:24;;;;;;;22.13;10.00;;;;;;;6.30;69.17;98872.44;4973316;28;20288;-85
2022/01/23 00:11:54;;;;;;;18.20;10.95;;;;;;;6.28;68.98;98866.66;4968094;28;20636;-84
2022/01/23 00:19:42;;;;;;;;;;;;;;;6.12;69.21;98862.41;4974766;28;20270;-85
2022/01/23 00:22:09;;;;;;;15.85;8.73;;;;;;;6.32;68.94;98860.13;4950254;28;20089;-85
2022/01/23 00:32:47;;;;;;;16.38;8.95;;;;;;;6.28;69.08;98864.06;4958014;28;20173;-85
2022/01/23 00:35:12;;;;;;;15.70;9.02;;;;;;;6.37;69.05;98860.41;4956388;28;20184;-84
2022/01/23 00:37:38;;;;;;;19.70;10.73;;;;;;;6.24;69.12;98863.63;4938790;28;20788;-84
2022/01/23 00:40:05;;;;;;;17.63;9.80;;;;;;;6.23;69.30;98868.97;4972562;28;20295;-85
2022/01/23 00:42:31;;;;;;;17.60;8.77;;;;;;;6.25;69.00;98865.19;4959328;28;20287;-85
2022/01/23 00:45:09;;;;;;;14.82;9.07;;;;;;;6.27;69.25;98857.28;4970186;28;20168;-85
2022/01/23 00:47:37;;;;;;;16.98;9.18;;;;;;;6.22;69.32;98863.00;4953104;28;20268;-85
2022/01/23 00:50:03;;;;;;;14.20;8.77;;;;;;;6.25;69.13;98859.22;4949947;28;20181;-85
2022/01/23 00:52:29;;;;;;;15.07;8.35;;;;;;;6.30;68.92;98859.50;4952625;28;20289;-85
2022/01/23 00:54:55;;;;;;;14.48;8.32;;;;;;;6.28;68.81;98845.97;4954112;28;20117;-84
2022/01/23 00:57:21;;;;;;;16.33;9.38;;;;;;;6.36;68.65;98840.72;4955967;28;20677;-85
2022/01/23 00:59:47;;;;;;;19.30;11.13;;;;;;;6.30;68.78;98838.81;4931401;28;20162;-85
2022/01/23 01:02:12;;;;;;;18.65;9.82;;;;;;;6.30;69.11;98844.00;4956003;28;20285;-84
2022/01/23 01:04:40;;;;;;;20.13;9.68;;;;;;;6.21;69.13;98835.50;4956531;28;20222;-85
2022/01/23 01:07:05;;;;;;;16.98;9.15;;;;;;;6.22;69.31;98844.06;4932348;28;20208;-84
2022/01/23 01:09:31;;;;;;;21.00;10.20;;;;;;;6.26;69.26;98855.69;4955545;28;20204;-85
2022/01/23 01:12:04;;;;;;;18.77;9.50;;;;;;;6.24;69.11;98839.50;4936901;28;20213;-85
2022/01/23 01:14:43;;;;;;;18.08;10.07;;;;;;;6.24;69.49;98842.91;4938551;28;20576;-85
2022/01/23 01:17:26;;;;;;;17.88;9.40;;;;;;;6.25;69.10;98846.31;4956487;28;20197;-84
2022/01/23 01:33:50;;;;;;;19.38;10.80;;;;;;;6.37;68.43;98845.72;4968880;28;20206;-85
2022/01/23 01:38:41;;;;;;;16.70;9.32;;;;;;;6.31;69.25;98854.16;4956063;28;20634;-85
2022/01/23 01:41:07;;;;;;;19.92;10.73;;;;;;;6.25;69.21;98854.84;4954826;28;20189;-85
2022/01/23 01:43:32;;;;;;;18.50;10.73;;;;;;;6.28;69.24;98853.72;4965072;28;20140;-85
2022/01/23 01:45:57;;;;;;;21.90;10.60;;;;;;;6.33;69.12;98861.75;4968527;28;20282;-85
2022/01/23 01:48:25;;;;;;;18.23;10.23;;;;;;;6.36;68.95;98858.81;4950850;28;20169;-84
2022/01/23 01:50:53;;;;;;;20.88;10.55;;;;;;;6.22;68.77;98854.41;4923676;28;20698;-84
2022/01/23 01:53:19;;;;;;;19.48;10.65;;;;;;;6.19;69.47;98861.53;4936055;28;20415;-85
2022/01/23 01:55:49;;;;;;;17.60;9.52;;;;;;;6.26;69.60;98853.88;4942093;28;20101;-85
2022/01/23 02:01:02;;;;;;;20.80;10.70;;;;;;;6.44;68.60;98853.56;4950043;28;20193;-84
2022/01/23 02:08:43;;;;;;;19.60;9.70;;;;;;;6.29;69.20;98834.63;4961626;28;20196;-84
2022/01/23 02:11:15;;;;;;;25.90;11.75;;;;;;;6.22;69.03;98833.72;4931538;28;20213;-84
2022/01/23 02:56:55;;;;;;;21.35;11.70;;;;;;;6.11;69.47;98822.81;4948723;28;20254;-84
2022/01/23 02:59:30;;;;;;;22.52;11.35;;;;;;;6.11;70.00;98822.81;4942952;28;20173;-84
2022/01/23 03:04:28;;;;;;;25.08;13.35;;;;;;;6.11;69.32;98838.31;4950302;28;20582;-84
2022/01/23 03:07:10;;;;;;;25.80;14.25;;;;;;;6.12;69.80;98834.78;4925538;28;20282;-84
2022/01/23 03:28:16;;;;;;;23.73;12.35;;;;;;;6.12;69.44;98858.03;4952128;28;20200;-84
2022/01/23 03:30:50;;;;;;;22.48;11.32;;;;;;;6.08;70.21;98850.81;4961838;28;20660;-84
2022/01/23 03:33:16;;;;;;;22.00;11.52;;;;;;;6.02;70.32;98847.13;4948506;28;20253;-84
2022/01/23 03:35:41;;;;;;;21.40;11.30;;;;;;;6.06;69.69;98845.78;4933580;28;20736;-84
2022/01/23 03:38:07;;;;;;;21.48;10.60;;;;;;;6.13;70.07;98845.91;4933120;28;20185;-84
2022/01/23 03:40:32;;;;;;;23.65;12.35;;;;;;;6.26;69.23;98840.16;4950624;28;20651;-84
2022/01/23 03:43:08;;;;;;;23.58;11.80;;;;;;;6.16;69.28;98848.16;4949460;28;20197;-84
2022/01/23 03:50:40;;;;;;;29.30;13.80;;;;;;;6.08;69.61;98843.03;4966886;28;20534;-84
2022/01/23 03:53:06;;;;;;;32.58;15.93;;;;;;;6.08;69.48;98848.22;4913848;28;20201;-84
2022/01/23 03:55:32;;;;;;;35.08;17.42;;;;;;;6.06;69.56;98840.63;4949591;28;20196;-84
2022/01/23 03:57:58;;;;;;;31.95;15.38;;;;;;;6.13;69.79;98840.75;4955096;28;20344;-84
2022/01/23 04:00:26;;;;;;;25.48;13.60;;;;;;;6.15;70.04;98841.38;4950443;28;20779;-84
2022/01/23 04:02:52;;;;;;;29.05;16.33;;;;;;;6.15;69.74;98842.19;4944358;28;20192;-84
2022/01/23 04:05:17;;;;;;;32.38;14.98;;;;;;;6.17;69.46;98835.06;4950207;28;20685;-84
2022/01/23 04:07:43;;;;;;;30.60;15.07;;;;;;;6.09;69.49;98819.59;4937039;28;20296;-84
2022/01/23 04:10:11;;;;;;;33.05;15.90;;;;;;;6.10;69.47;98830.72;4948345;28;20282;-84
2022/01/23 04:15:15;;;;;;;30.08;14.82;;;;;;;6.12;69.48;98832.19;4944534;28;20204;-84
2022/01/23 04:34:19;;;;;;;21.63;12.13;;;;;;;6.14;69.16;98848.31;4937980;28;20200;-84
2022/01/23 04:45:22;;;;;;;19.88;11.18;;;;;;;6.17;69.67;98842.00;4953975;28;20212;-84
2022/01/23 05:01:16;;;;;;;18.50;10.32;;;;;;;6.18;69.29;98843.59;4953493;28;20303;-84
2022/01/23 05:06:29;;;;;;;21.52;11.23;;;;;;;6.10;69.02;98841.06;4969140;28;20201;-84
2022/01/23 05:08:55;;;;;;;21.85;11.88;;;;;;;6.11;69.98;98838.31;4933407;28;20189;-84
2022/01/23 05:11:20;;;;;;;19.52;11.23;;;;;;;6.07;69.60;98847.41;4924589;28;20094;-84
2022/01/23 05:13:46;;;;;;;20.27;10.35;;;;;;;6.09;69.99;98840.28;4934087;28;20717;-84
2022/01/23 05:16:12;;;;;;;19.38;10.07;;;;;;;6.08;69.83;98848.22;4951723;28;20255;-84
2022/01/23 05:18:38;;;;;;;25.83;12.40;;;;;;;6.07;69.64;98847.41;4937533;28;20484;-84
2022/01/23 05:21:23;;;;;;;23.30;12.77;;;;;;;6.02;70.11;98844.53;4934989;28;20420;-84
2022/01/23 05:23:49;;;;;;;20.67;11.68;;;;;;;6.03;70.23;98840.16;4937308;28;20336;-84
2022/01/23 05:26:14;;;;;;;23.67;10.68;;;;;;;6.03;70.02;98848.72;4936868;28;20207;-84
2022/01/23 05:28:42;;;;;;;20.42;11.57;;;;;;;6.04;69.73;98842.59;4958864;28;20111;-84
2022/01/23 05:31:08;;;;;;;21.17;11.10;;;;;;;5.95;69.90;98826.31;4937063;28;20219;-84
2022/01/23 05:33:33;;;;;;;21.70;11.85;;;;;;;6.06;70.32;98835.44;4920438;28;20694;-84
2022/01/23 05:36:02;;;;;;;21.17;10.95;;;;;;;6.05;69.58;98844.22;4937072;28;20267;-84
2022/01/23 05:38:27;;;;;;;19.85;10.05;;;;;;;6.10;69.82;98852.25;4953034;28;20190;-84
2022/01/23 05:40:57;;;;;;;20.73;11.15;;;;;;;6.06;69.91;98858.72;4936579;28;20177;-84
2022/01/23 05:43:24;;;;;;;22.58;10.80;;;;;;;6.04;70.08;98850.34;4968929;28;20369;-84
2022/01/23 05:45:50;;;;;;;23.40;12.65;;;;;;;6.05;69.94;98859.72;4952282;28;20173;-84
2022/01/23 05:48:16;;;;;;;18.40;10.80;;;;;;;6.08;69.97;98854.19;4952469;28;20184;-84
2022/01/23 05:50:42;;;;;;;22.83;11.00;;;;;;;6.08;69.95;98843.03;4920104;28;20192;-84
2022/01/23 05:53:08;;;;;;;21.73;10.60;;;;;;;6.06;70.06;98845.78;4952703;28;20165;-84
2022/01/23 05:55:33;;;;;;;19.23;10.40;;;;;;;6.07;69.62;98847.41;4920034;28;20235;-84
2022/01/23 05:57:58;;;;;;;21.25;11.50;;;;;;;6.07;69.93;98855.19;4951033;28;20204;-84
2022/01/23 06:00:24;;;;;;;20.13;11.20;;;;;;;6.05;70.04;98864.06;4934057;28;20321;-84
2022/01/23 06:02:49;;;;;;;20.77;10.60;;;;;;;6.08;70.10;98859.34;4940889;28;20165;-84
2022/01/23 06:05:14;;;;;;;22.60;11.63;;;;;;;6.02;70.33;98870.41;4934960;28;20118;-84
2022/01/23 06:07:42;;;;;;;23.70;12.48;;;;;;;5.99;70.57;98870.75;4949093;28;20371;-83
2022/01/23 06:10:08;;;;;;;21.95;11.85;;;;;;;5.95;70.08;98880.59;4951984;28;20641;-84
2022/01/23 06:12:33;;;;;;;23.73;13.13;;;;;;;5.87;70.38;98872.09;4914227;28;20288;-84
2022/01/23 06:14:58;;;;;;;22.25;12.68;;;;;;;5.85;70.34;98871.47;4965015;28;20783;-84
2022/01/23 06:17:24;;;;;;;24.20;12.88;;;;;;;5.86;70.69;98885.97;4947953;28;20075;-84
2022/01/23 06:19:49;;;;;;;23.60;13.07;;;;;;;5.78;70.50;98869.56;4930725;28;20213;-84
2022/01/23 06:22:15;;;;;;;24.27;11.65;;;;;;;5.89;70.83;98898.56;4931470;28;20256;-84
2022/01/23 06:24:47;;;;;;;22.27;11.48;;;;;;;5.89;70.68;98891.63;4910463;28;20185;-84
2022/01/23 06:27:12;;;;;;;24.38;13.32;;;;;;;5.79;71.44;98885.84;4930467;28;20056;-84
2022/01/23 06:29:38;;;;;;;20.30;12.68;;;;;;;5.86;70.53;98896.31;4951066;28;20595;-84
2022/01/23 06:32:04;;;;;;;22.88;12.55;;;;;;;5.89;70.66;98901.94;4938940;28;20217;-84
2022/01/23 06:34:30;;;;;;;20.30;11.05;;;;;;;5.91;70.61;98904.38;4916429;28;20288;-84
2022/01/23 06:36:56;;;;;;;21.33;11.48;;;;;;;5.92;70.43;98901.63;4951627;28;20211;-84
2022/01/23 06:39:23;;;;;;;22.25;10.98;;;;;;;5.89;70.52;98901.16;4934733;28;20184;-84
2022/01/23 06:41:49;;;;;;;23.60;12.85;;;;;;;5.93;70.11;98899.81;4952348;28;20201;-84
2022/01/23 06:44:14;;;;;;;20.27;10.35;;;;;;;5.90;70.96;98900.19;4915336;28;20177;-84
2022/01/23 06:46:40;;;;;;;25.27;12.93;;;;;;;5.80;70.63;98903.78;4950016;28;20276;-84
2022/01/23 06:49:07;;;;;;;28.10;14.30;;;;;;;5.82;71.24;98912.16;4952244;28;20650;-84
2022/01/23 06:51:32;;;;;;;19.90;12.38;;;;;;;5.80;70.91;98903.78;4935490;28;20188;-84
2022/01/23 06:53:58;;;;;;;22.10;11.77;;;;;;;5.94;70.59;98909.19;4950631;28;20252;-84
2022/01/23 06:56:23;;;;;;;25.55;13.90;;;;;;;5.87;70.57;98906.50;4913778;28;20094;-84
2022/01/23 06:58:49;;;;;;;26.70;13.90;;;;;;;5.89;71.08;98914.09;4941509;28;20285;-84
2022/01/23 07:01:15;;;;;;;24.02;13.02;;;;;;;5.79;70.47;98897.03;4936575;28;20199;-84
2022/01/23 07:03:41;;;;;;;25.90;14.27;;;;;;;5.84;70.43;98903.44;4952368;28;20373;-84
2022/01/23 07:06:06;;;;;;;20.30;12.45;;;;;;;5.98;71.00;98915.66;4917896;28;20526;-84
2022/01/23 07:08:32;;;;;;;21.77;12.35;;;;;;;6.10;70.15;98919.47;4948584;28;20251;-84
2022/01/23 07:10:58;;;;;;;24.38;13.00;;;;;;;6.03;70.30;98917.75;4919477;28;20247;-84
2022/01/23 07:13:23;;;;;;;23.98;13.05;;;;;;;5.93;69.94;98923.91;4943186;28;20565;-84
2022/01/23 07:15:49;;;;;;;25.83;13.18;;;;;;;5.92;70.33;98921.50;4934468;28;20211;-85
2022/01/23 07:18:18;;;;;;;25.23;12.65;;;;;;;5.92;70.48;98931.84;4933435;28;20214;-85
2022/01/23 07:20:44;;;;;;;29.30;13.90;;;;;;;5.87;70.25;98940.09;4954024;28;20697;-84
2022/01/23 07:23:10;;;;;;;29.52;15.45;;;;;;;5.93;70.02;98938.59;4953817;28;20691;-84
2022/01/23 07:25:35;;;;;;;27.73;14.63;;;;;;;5.98;69.70;98938.94;4952384;28;20162;-84
2022/01/23 07:28:02;;;;;;;27.88;14.32;;;;;;;5.96;69.94;98939.13;4935950;28;20647;-84
2022/01/23 07:30:38;;;;;;;;;;;;;;;;;;;;;
2022/01/23 07:32:58;;;;;;;24.35;12.85;;;;;;;5.97;69.62;98932.97;4936512;28;20296;-84
2022/01/23 07:35:24;;;;;;;26.67;12.25;;;;;;;5.93;70.01;98923.91;4933438;28;20244;-84
2022/01/23 07:37:49;;;;;;;21.13;11.45;;;;;;;6.03;70.03;98944.41;4932148;28;20162;-84
2022/01/23 07:40:15;;;;;;;22.02;11.48;;;;;;;6.01;69.82;98938.59;4938933;28;20298;-84
2022/01/23 07:42:40;;;;;;;24.23;13.52;;;;;;;6.01;69.69;98938.59;4952437;28;20578;-84
2022/01/23 07:45:06;;;;;;;26.33;14.40;;;;;;;6.01;69.74;98943.75;4925818;28;20216;-84
2022/01/23 07:47:32;;;;;;;25.65;13.93;;;;;;;6.04;69.96;98935.66;4954394;28;20639;-84
2022/01/23 07:49:57;;;;;;;25.95;13.88;;;;;;;6.06;69.81;98943.25;4938295;28;20184;-85
2022/01/23 07:52:23;;;;;;;29.50;14.82;;;;;;;6.09;70.01;98938.56;4956599;28;20187;-84
2022/01/23 07:54:48;;;;;;;23.50;13.20;;;;;;;6.04;69.66;98925.34;4920816;28;20188;-85
2022/01/23 07:57:14;;;;;;;24.98;13.85;;;;;;;6.08;69.60;98934.34;4955194;28;20532;-84
2022/01/23 07:59:39;;;;;;;26.25;14.02;;;;;;;6.04;69.63;98940.84;4942676;28;20324;-84
2022/01/23 08:02:05;;;;;;;24.00;13.82;;;;;;;6.07;69.70;98930.16;4963856;28;20169;-84
2022/01/23 08:04:30;;;;;;;30.40;15.82;;;;;;;6.04;68.96;98925.34;4942052;28;20322;-84
2022/01/23 08:07:11;;;;;;;33.85;19.60;;;;;;;6.12;69.37;98945.97;4942241;28;20206;-84
2022/01/23 08:09:37;;;;;;;30.65;16.55;;;;;;;6.18;69.63;98952.22;4970613;28;20633;-84
2022/01/23 08:12:03;;;;;;;32.17;17.70;;;;;;;6.15;68.86;98945.63;4937281;28;20165;-84
2022/01/23 08:14:29;;;;;;;30.48;16.40;;;;;;;6.22;69.51;98953.50;4936847;28;20299;-84
2022/01/23 08:16:54;;;;;;;33.25;18.38;;;;;;;6.24;69.36;98961.91;4957290;28;20619;-84
2022/01/23 08:19:19;;;;;;;32.28;18.60;;;;;;;6.24;69.56;98967.06;4957057;28;20211;-84
2022/01/23 08:21:45;;;;;;;33.35;19.85;;;;;;;6.23;69.52;98967.25;4939133;28;20192;-84
2022/01/23 08:24:11;;;;;;;35.88;20.23;;;;;;;6.30;69.37;98975.91;4939984;28;20437;-84
2022/01/23 08:26:37;;;;;;;29.85;16.10;;;;;;;6.32;69.21;98974.78;4921862;28;20635;-84
2022/01/23 08:29:04;;;;;;;23.27;12.20;;;;;;;6.35;69.05;98971.03;4942965;28;20279;-84
2022/01/23 08:31:29;;;;;;;24.40;13.95;;;;;;;6.28;68.94;98957.19;4955553;28;20202;-84
2022/01/23 08:33:55;;;;;;;25.92;13.80;;;;;;;6.33;69.67;98967.81;4923965;28;20203;-84
2022/01/23 08:36:20;;;;;;;37.33;18.58;;;;;;;6.37;69.21;98976.84;4938250;28;20100;-84
2022/01/23 08:38:46;;;;;;;24.88;15.15;;;;;;;6.39;69.41;98972.28;4966784;28;20273;-84
2022/01/23 08:43:36;;;;;;;29.35;15.73;;;;;;;6.43;69.04;98980.53;4966919;28;20101;-84
2022/01/23 08:46:02;;;;;;;24.00;13.15;;;;;;;6.38;69.44;98971.50;4953075;28;20250;-84
2022/01/23 08:48:28;;;;;;;21.77;12.40;;;;;;;6.45;69.01;98974.19;4938718;28;20177;-84
2022/01/23 08:50:53;;;;;;;21.80;12.60;;;;;;;6.41;69.10;98969.53;4954806;28;20245;-84
2022/01/23 08:53:18;;;;;;;18.30;10.90;;;;;;;6.53;69.28;98984.50;4938468;28;20211;-84
2022/01/23 08:55:44;;;;;;;21.33;12.57;;;;;;;6.46;68.88;98962.88;4948194;28;20627;-84
2022/01/23 08:58:09;;;;;;;20.95;11.23;;;;;;;6.51;68.68;98965.75;4949840;28;20088;-84
2022/01/23 09:00:35;;;;;;;20.00;11.38;;;;;;;6.48;68.48;98954.94;4930613;28;20611;-84
2022/01/23 09:03:01;;;;;;;21.73;11.05;;;;;;;6.60;68.46;98978.59;4954763;28;20101;-84
2022/01/23 09:05:27;;;;;;;19.98;11.32;;;;;;;6.54;68.13;98975.72;4937240;28;20172;-84
2022/01/23 09:07:53;;;;;;;21.85;12.38;;;;;;;6.61;67.83;98978.44;4953326;28;20282;-84
2022/01/23 09:10:25;;;;;;;18.50;10.23;;;;;;;6.66;68.00;98972.75;4954328;28;20332;-84
2022/01/23 09:13:16;;;;;;;;;;;;;;;;;;;;;
2022/01/23 09:15:35;;;;;;;20.60;11.55;;;;;;;6.52;67.11;98951.81;4962643;28;20764;-84
2022/01/23 09:18:01;;;;;;;30.48;16.05;;;;;;;6.59;66.88;98974.44;4937451;28;20272;-85
2022/01/23 09:20:27;;;;;;;25.73;12.68;;;;;;;6.51;66.95;98947.66;4922323;28;20221;-84
2022/01/23 09:22:52;;;;;;;21.70;11.93;;;;;;;6.62;66.99;98976.69;4951677;28;20296;-86
2022/01/23 09:25:18;;;;;;;20.30;11.52;;;;;;;6.64;66.39;98969.53;4950864;28;20235;-84
2022/01/23 09:27:43;;;;;;;26.92;14.63;;;;;;;6.66;66.84;98959.81;4935301;28;20258;-84
2022/01/23 09:30:17;;;;;;;20.35;11.15;;;;;;;6.75;66.55;98972.53;4943025;28;20029;-84
2022/01/23 09:32:44;;;;;;;21.13;11.57;;;;;;;6.63;66.45;98981.69;4927731;28;20166;-85
2022/01/23 09:35:14;;;;;;;20.52;10.30;;;;;;;6.61;66.60;98973.25;4938824;28;20239;-85
2022/01/23 09:37:40;;;;;;;17.95;9.38;;;;;;;6.63;66.02;98975.69;4934931;28;20230;-84
2022/01/23 09:40:07;;;;;;;16.92;10.02;;;;;;;6.75;66.29;98980.28;4938857;28;20289;-84
2022/01/23 09:42:42;;;;;;;21.23;11.90;;;;;;;6.63;66.07;98980.84;4940166;28;20708;-84
2022/01/23 09:45:10;;;;;;;17.40;8.60;;;;;;;6.76;65.46;98978.50;4938428;28;20686;-84
2022/01/23 09:47:37;;;;;;;16.05;9.88;;;;;;;6.79;66.25;98974.75;4925011;28;20283;-84
2022/01/23 09:50:03;;;;;;;20.15;11.55;;;;;;;6.80;66.09;98974.56;4930025;28;20294;-84
2022/01/23 09:52:31;;;;;;;19.33;11.48;;;;;;;6.90;65.74;98961.38;4922011;28;20283;-84
2022/01/23 09:54:59;;;;;;;17.20;10.20;;;;;;;6.88;66.15;98965.94;4954372;28;20340;-84
2022/01/23 09:57:29;;;;;;;17.45;9.25;;;;;;;6.75;65.14;98958.75;4947656;28;20269;-85
2022/01/23 09:59:55;;;;;;;19.23;11.68;;;;;;;6.87;65.89;98975.50;4968899;28;20340;-85
2022/01/23 10:02:23;;;;;;;17.80;9.95;;;;;;;6.90;65.32;98980.28;4946211;28;20246;-85
2022/01/23 10:04:52;;;;;;;17.90;9.82;;;;;;;6.94;65.79;98983.38;4935203;28;20238;-85
2022/01/23 10:07:18;;;;;;;16.17;9.25;;;;;;;6.86;65.49;98981.63;4953029;28;20258;-84
2022/01/23 10:09:46;;;;;;;17.55;10.43;;;;;;;6.84;65.14;98962.88;4909455;28;20685;-84
2022/01/23 10:12:11;;;;;;;17.83;10.40;;;;;;;7.06;64.96;98975.94;4920855;28;20220;-85
2022/01/23 10:14:37;;;;;;;16.75;9.18;;;;;;;6.98;65.06;98969.06;4952089;28;20192;-86
2022/01/23 10:17:05;;;;;;;15.75;7.88;;;;;;;6.83;64.82;98976.81;4916998;28;20165;-85
2022/01/23 10:19:31;;;;;;;16.40;8.68;;;;;;;7.01;64.82;98973.09;4921398;28;20198;-84
2022/01/23 10:21:57;;;;;;;18.13;8.90;;;;;;;6.85;64.86;98968.88;4949661;28;20289;-86
2022/01/23 10:24:23;;;;;;;13.50;8.05;;;;;;;6.77;65.41;98972.34;4949465;28;20600;-85
2022/01/23 10:26:53;;;;;;;15.00;7.78;;;;;;;6.89;65.03;98963.16;4935800;28;20105;-84
2022/01/23 10:29:24;;;;;;;15.57;8.88;;;;;;;6.92;65.29;98965.41;4939526;28;20330;-85
2022/01/23 10:32:06;;;;;;;13.27;7.85;;;;;;;6.87;64.72;98959.97;4956628;28;20181;-85
2022/01/23 10:34:51;;;;;;;14.18;7.45;;;;;;;6.85;64.51;98956.72;4925213;28;20233;-86
2022/01/23 10:37:33;;;;;;;13.93;7.18;;;;;;;7.05;64.44;98964.00;4954822;28;20341;-85
2022/01/23 10:40:06;;;;;;;15.20;7.93;;;;;;;7.08;64.69;98955.88;4971309;28;20255;-85
2022/01/23 10:47:51;;;;;;;15.93;8.77;;;;;;;7.08;64.00;98946.31;4938383;28;20359;-85
2022/01/23 10:50:30;;;;;;;14.02;6.72;;;;;;;6.97;64.31;98940.75;4929117;28;20577;-85
2022/01/23 10:52:59;;;;;;;16.20;8.43;;;;;;;7.00;64.21;98940.41;4939157;28;20191;-86
2022/01/23 10:55:30;;;;;;;13.88;7.32;;;;;;;6.96;63.91;98945.16;4934977;28;20191;-86
2022/01/23 10:58:00;;;;;;;16.75;8.27;;;;;;;7.06;63.83;98940.50;4917971;28;20294;-86
2022/01/23 11:00:27;;;;;;;17.13;8.10;;;;;;;7.20;63.96;98951.06;4930927;28;20605;-86
2022/01/23 11:02:53;;;;;;;14.80;7.85;;;;;;;7.32;63.98;98940.06;4936540;28;20213;-86
2022/01/23 11:05:21;;;;;;;20.42;9.68;;;;;;;7.27;63.83;98950.16;4920579;28;20311;-86
2022/01/23 11:07:49;;;;;;;14.45;8.07;;;;;;;7.20;63.80;98943.28;4936553;28;20111;-86
2022/01/23 11:10:20;;;;;;;19.35;9.60;;;;;;;7.12;63.49;98933.81;4924602;28;20271;-86
2022/01/23 11:18:01;;;;;;;;;;;;;;;7.17;64.43;98948.81;4952749;28;20169;-85
2022/01/23 11:20:39;;;;;;;37.53;21.83;;;;;;;7.14;62.71;98949.97;4936137;28;20080;-86
2022/01/23 11:23:11;;;;;;;17.45;8.70;;;;;;;7.10;62.90;98951.31;4970337;28;20236;-85
2022/01/23 11:25:38;;;;;;;18.15;10.18;;;;;;;7.07;63.25;98942.09;4958307;28;20239;-86
2022/01/23 11:28:04;;;;;;;25.85;12.63;;;;;;;7.28;63.08;98943.19;4957165;28;20278;-86
2022/01/23 11:30:40;;;;;;;15.40;7.53;;;;;;;7.09;62.75;98934.16;4955504;28;20596;-85
2022/01/23 11:33:08;;;;;;;18.35;10.27;;;;;;;7.30;63.69;98938.66;4953575;28;20179;-85
2022/01/23 11:35:33;;;;;;;16.25;7.90;;;;;;;7.28;63.59;98938.81;4937329;28;20277;-86
2022/01/23 11:38:00;;;;;;;14.52;7.95;;;;;;;7.01;62.84;98942.00;4936147;28;20588;-86
2022/01/23 11:53:56;;;;;;;27.17;13.10;;;;;;;7.17;62.65;98923.72;4937142;28;20192;-86
2022/01/23 11:56:24;;;;;;;13.45;7.47;;;;;;;7.35;63.51;98932.91;4951332;28;20237;-86
2022/01/23 11:58:52;;;;;;;15.45;8.25;;;;;;;7.38;62.92;98929.97;4942970;28;20200;-87
2022/01/23 12:01:19;;;;;;;23.33;11.63;;;;;;;7.25;62.34;98923.63;4934412;28;20157;-85
2022/01/23 12:04:07;;;;;;;20.35;9.68;;;;;;;7.26;63.06;98927.81;4954917;28;20239;-85
2022/01/23 12:06:34;;;;;;;16.65;8.40;;;;;;;7.49;62.86;98916.56;4947542;28;20294;-87
2022/01/23 12:09:26;;;;;;;14.43;7.95;;;;;;;7.30;62.76;98916.13;4927718;28;20197;-86
2022/01/23 12:12:25;;;;;;;16.98;9.25;;;;;;;7.39;62.68;98908.25;4928787;28;20765;-85
2022/01/23 12:18:18;;;;;;;18.02;9.27;;;;;;;7.45;62.26;98902.34;4962591;28;20161;-85
2022/01/23 12:20:45;;;;;;;14.10;7.68;;;;;;;7.55;62.68;98897.66;4943546;28;20295;-85
2022/01/23 12:23:11;;;;;;;20.52;11.55;;;;;;;7.51;61.95;98901.63;4932788;28;20608;-86
2022/01/23 12:25:45;;;;;;;19.02;11.40;;;;;;;7.39;63.01;98898.69;4934152;28;20198;-86
2022/01/23 12:28:24;;;;;;;14.60;7.63;;;;;;;7.51;62.64;98899.03;4919817;28;20145;-86
2022/01/23 12:30:53;;;;;;;12.88;6.95;;;;;;;7.56;62.69;98893.31;4956894;28;20184;-86
2022/01/23 12:33:49;;;;;;;18.13;9.68;;;;;;;7.15;63.07;98886.03;4927368;28;20291;-86
2022/01/23 12:36:15;;;;;;;23.63;12.32;;;;;;;7.56;62.82;98877.75;4943410;28;20521;-86
2022/01/23 12:38:54;;;;;;;13.32;7.63;;;;;;;7.29;62.59;98886.00;4954962;28;20201;-86
2022/01/23 12:41:27;;;;;;;13.88;8.35;;;;;;;7.60;63.01;98884.16;4937467;28;20186;-86
2022/01/23 12:44:00;;;;;;;16.10;9.82;;;;;;;7.47;63.00;98882.22;4962765;28;20287;-86
2022/01/23 12:46:38;;;;;;;13.70;8.05;;;;;;;7.43;62.61;98879.19;4970109;28;20204;-85
2022/01/23 12:49:30;;;;;;;14.00;8.15;;;;;;;7.23;63.10;98871.19;4936106;28;20188;-86
2022/01/23 12:52:08;;;;;;;17.10;10.45;;;;;;;7.48;62.79;98881.25;4928175;28;20204;-85
2022/01/23 12:54:51;;;;;;;16.17;9.13;;;;;;;7.32;63.15;98870.09;4942235;28;20244;-85
2022/01/23 12:57:19;;;;;;;23.98;14.43;;;;;;;7.50;62.71;98868.91;4936899;28;20165;-85
2022/01/23 12:59:53;;;;;;;19.55;12.82;;;;;;;7.40;62.95;98863.19;4939537;28;20258;-85
2022/01/23 13:02:20;;;;;;;16.63;8.43;;;;;;;7.54;62.07;98851.19;4949260;28;20261;-85
2022/01/23 13:04:47;;;;;;;18.77;9.50;;;;;;;7.53;62.02;98862.56;4952542;28;20227;-86
2022/01/23 13:18:32;;;;;;;14.23;7.60;;;;;;;7.60;60.25;98861.63;4960199;28;20357;-85
2022/01/23 13:31:43;;;;;;;24.48;13.07;;;;;;;7.58;62.58;98855.03;4940006;28;20239;-86
2022/01/23 13:34:23;;;;;;;18.35;8.77;;;;;;;7.30;62.28;98853.16;4927102;28;20211;-86
2022/01/23 13:36:53;;;;;;;14.00;8.75;;;;;;;7.40;61.70;98852.84;4942267;28;20465;-85
2022/01/23 13:39:52;;;;;;;11.63;5.78;;;;;;;7.30;60.94;98855.72;4933937;28;20212;-85
2022/01/23 13:59:18;;;;;;;167.13;62.20;;;;;;;7.66;59.68;98847.94;4954249;28;20184;-86
2022/01/23 14:04:20;;;;;;;16.75;9.25;;;;;;;7.52;60.16;98842.81;4968078;28;20141;-86
2022/01/23 14:06:46;;;;;;;63.38;31.55;;;;;;;7.46;60.49;98828.78;4944027;28;20177;-85
2022/01/23 14:09:13;;;;;;;22.25;12.38;;;;;;;7.45;60.13;98828.00;4950887;28;20211;-86
2022/01/23 14:11:40;;;;;;;13.30;8.15;;;;;;;7.52;59.77;98845.41;4943513;28;20691;-85
2022/01/23 14:14:14;;;;;;;13.38;7.78;;;;;;;7.36;59.55;98846.44;4935504;28;20110;-86
2022/01/23 14:16:41;;;;;;;12.55;7.25;;;;;;;7.54;59.64;98839.06;4945933;28;20274;-86
2022/01/23 14:19:17;;;;;;;11.40;6.70;;;;;;;7.47;59.62;98848.53;4932958;28;20268;-86
2022/01/23 14:21:45;;;;;;;15.40;7.97;;;;;;;7.54;59.04;98840.81;4949431;28;20167;-86
2022/01/23 14:24:10;;;;;;;12.45;7.25;;;;;;;7.40;59.13;98832.94;4949235;28;20200;-85
2022/01/23 14:26:36;;;;;;;13.63;7.55;;;;;;;7.55;59.65;98845.03;4964514;28;20176;-86
2022/01/23 14:29:05;;;;;;;20.50;11.15;;;;;;;7.30;59.62;98828.03;4925214;28;20650;-86
2022/01/23 14:31:37;;;;;;;19.23;10.10;;;;;;;7.36;59.90;98838.66;4946708;28;20192;-85
2022/01/23 14:34:05;;;;;;;13.30;7.80;;;;;;;7.34;59.98;98841.41;4951193;28;20584;-85
2022/01/23 14:36:35;;;;;;;13.90;7.30;;;;;;;7.38;59.74;98834.09;4944228;28;20786;-85
2022/01/23 14:39:07;;;;;;;10.93;6.43;;;;;;;7.48;59.77;98843.16;4967606;28;20209;-85
2022/01/23 14:41:44;;;;;;;16.27;9.10;;;;;;;7.34;60.32;98840.63;4935745;28;20156;-86
2022/01/23 14:44:17;;;;;;;13.57;7.55;;;;;;;7.44;59.93;98838.53;4934893;28;20144;-86
2022/01/23 14:46:45;;;;;;;12.38;7.40;;;;;;;7.50;60.38;98833.44;4947526;28;20321;-86
2022/01/23 14:49:21;;;;;;;24.65;11.88;;;;;;;7.50;59.86;98835.22;4950155;28;20199;-86
2022/01/23 14:51:46;;;;;;;25.15;12.07;;;;;;;7.47;60.07;98838.16;4918469;28;20273;-86
2022/01/23 14:54:11;;;;;;;33.90;17.38;;;;;;;7.45;60.59;98842.72;4949313;28;20331;-87
2022/01/23 14:56:39;;;;;;;18.60;9.60;;;;;;;7.22;61.01;98851.44;4916994;28;20199;-86
2022/01/23 14:59:08;;;;;;;32.30;18.10;;;;;;;7.24;61.00;98840.91;4933519;28;20361;-85
2022/01/23 15:01:34;;;;;;;18.60;10.40;;;;;;;7.43;60.68;98842.91;4925012;28;20666;-86
2022/01/23 15:04:05;;;;;;;18.77;9.98;;;;;;;7.38;60.87;98827.09;4953679;28;20196;-86
2022/01/23 15:06:31;;;;;;;16.35;9.20;;;;;;;7.56;61.36;98851.84;4948149;28;20212;-86
2022/01/23 15:09:07;;;;;;;11.88;7.65;;;;;;;7.30;61.48;98840.97;4964764;28;20207;-85
2022/01/23 15:11:33;;;;;;;15.00;8.77;;;;;;;7.35;60.71;98840.44;4913394;28;20106;-85
2022/01/23 15:13:58;;;;;;;14.90;8.65;;;;;;;7.41;61.34;98844.09;4946001;28;20291;-86
2022/01/23 15:16:24;;;;;;;30.17;14.60;;;;;;;7.25;60.73;98851.09;4929451;28;20110;-85
2022/01/23 15:18:49;;;;;;;20.52;9.52;;;;;;;7.39;61.25;98851.25;4932962;28;20208;-86
2022/01/23 15:21:15;;;;;;;16.23;7.50;;;;;;;7.15;61.10;98842.00;4916803;28;20098;-86